createdAt,value
2019-03-09T00:00:03.931Z,4
2019-03-09T00:01:01.798Z,3
2019-03-09T00:02:02.058Z,3
2019-03-09T00:03:02.219Z,2
2019-03-09T00:04:01.469Z,4
2019-03-09T00:05:01.830Z,3
2019-03-09T00:06:02.062Z,4
2019-03-09T00:07:02.181Z,2
2019-03-09T00:08:01.456Z,4
2019-03-09T00:09:01.616Z,4
2019-03-09T00:10:01.866Z,3
2019-03-09T00:11:02.090Z,3
2019-03-09T00:12:02.308Z,3
2019-03-09T00:13:01.497Z,4
2019-03-09T00:14:01.687Z,4
2019-03-09T00:15:01.920Z,3
2019-03-09T00:16:02.218Z,3
2019-03-09T00:17:02.385Z,3
2019-03-09T00:18:01.588Z,2
2019-03-09T00:19:01.852Z,3
2019-03-09T00:20:02.078Z,3
2019-03-09T00:21:02.255Z,4
2019-03-09T00:22:01.461Z,3
2019-03-09T00:23:01.664Z,4
2019-03-09T00:24:01.901Z,4
2019-03-09T00:25:02.092Z,4
2019-03-09T00:26:02.343Z,3
2019-03-09T00:27:01.555Z,3
2019-03-09T00:28:01.791Z,4
2019-03-09T00:29:02.269Z,3
2019-03-09T00:30:02.318Z,4
2019-03-09T00:31:01.561Z,4
2019-03-09T00:32:01.777Z,2
2019-03-09T00:33:01.973Z,3
2019-03-09T00:34:02.266Z,4
2019-03-09T00:35:01.525Z,4
2019-03-09T00:36:01.815Z,3
2019-03-09T00:37:01.918Z,4
2019-03-09T00:38:02.081Z,5
2019-03-09T00:39:02.098Z,3
2019-03-09T00:40:02.271Z,3
2019-03-09T00:41:01.597Z,4
2019-03-09T00:42:01.780Z,4
2019-03-09T00:43:01.953Z,3
2019-03-09T00:44:02.275Z,4
2019-03-09T00:45:01.547Z,4
2019-03-09T00:46:01.644Z,5
2019-03-09T00:47:01.916Z,4
2019-03-09T00:48:02.197Z,4
2019-03-09T00:49:02.272Z,5
2019-03-09T00:50:01.551Z,4
2019-03-09T00:51:01.725Z,3
2019-03-09T00:52:01.937Z,4
2019-03-09T00:53:02.172Z,3
2019-03-09T00:54:02.321Z,3
2019-03-09T00:55:01.681Z,4
2019-03-09T00:56:01.788Z,3
2019-03-09T00:57:01.927Z,4
2019-03-09T00:58:02.218Z,3
2019-03-09T00:59:01.649Z,3
2019-03-09T01:00:03.941Z,4
2019-03-09T01:01:01.630Z,3
2019-03-09T01:02:01.723Z,4
2019-03-09T01:03:01.934Z,4
2019-03-09T01:04:02.114Z,3
2019-03-09T01:05:02.398Z,3
2019-03-09T01:06:01.730Z,4
2019-03-09T01:07:01.978Z,6
2019-03-09T01:08:02.187Z,4
2019-03-09T01:09:01.393Z,4
2019-03-09T01:10:01.729Z,4
2019-03-09T01:11:01.837Z,4
2019-03-09T01:12:02.057Z,3
2019-03-09T01:13:02.302Z,3
2019-03-09T01:14:01.488Z,3
2019-03-09T01:15:01.743Z,4
2019-03-09T01:16:01.994Z,3
2019-03-09T01:17:02.172Z,4
2019-03-09T01:18:01.439Z,4
2019-03-09T01:19:01.712Z,3
2019-03-09T01:20:01.933Z,3
2019-03-09T01:21:02.082Z,3
2019-03-09T01:22:02.209Z,4
2019-03-09T01:23:01.474Z,4
2019-03-09T01:24:01.601Z,3
2019-03-09T01:25:01.850Z,4
2019-03-09T01:26:02.077Z,3
2019-03-09T01:27:01.782Z,4
2019-03-09T01:28:01.917Z,4
2019-03-09T01:29:02.111Z,3
2019-03-09T01:30:02.409Z,4
2019-03-09T01:31:01.727Z,4
2019-03-09T01:32:01.859Z,3
2019-03-09T01:33:02.078Z,3
2019-03-09T01:34:02.235Z,3
2019-03-09T01:35:01.538Z,4
2019-03-09T01:36:05.245Z,3
2019-03-09T01:37:01.946Z,3
2019-03-09T01:38:02.130Z,3
2019-03-09T01:39:02.474Z,4
2019-03-09T01:40:01.598Z,4
2019-03-09T01:41:01.809Z,3
2019-03-09T01:42:02.090Z,3
2019-03-09T01:43:02.256Z,3
2019-03-09T01:44:01.505Z,5
2019-03-09T01:45:01.798Z,3
2019-03-09T01:46:02.016Z,3
2019-03-09T01:47:01.686Z,3
2019-03-09T01:48:01.849Z,3
2019-03-09T01:49:02.164Z,2
2019-03-09T01:50:02.462Z,3
2019-03-09T01:51:01.696Z,3
2019-03-09T01:52:01.859Z,2
2019-03-09T01:53:02.059Z,2
2019-03-09T01:54:02.278Z,3
2019-03-09T01:55:01.764Z,2
2019-03-09T01:56:01.911Z,4
2019-03-09T01:57:02.159Z,3
2019-03-09T01:58:01.403Z,4
2019-03-09T01:59:01.703Z,3
2019-03-09T02:00:05.404Z,4
2019-03-09T02:01:02.024Z,3
2019-03-09T02:02:02.223Z,3
2019-03-09T02:03:01.412Z,4
2019-03-09T02:04:01.653Z,3
2019-03-09T02:05:01.977Z,3
2019-03-09T02:06:02.220Z,3
2019-03-09T02:07:01.393Z,2
2019-03-09T02:08:01.575Z,5
2019-03-09T02:09:01.817Z,3
2019-03-09T02:10:02.048Z,3
2019-03-09T02:11:02.352Z,2
2019-03-09T02:12:01.581Z,3
2019-03-09T02:13:01.844Z,3
2019-03-09T02:14:01.983Z,3
2019-03-09T02:15:02.284Z,3
2019-03-09T02:16:01.524Z,3
2019-03-09T02:17:01.841Z,3
2019-03-09T02:18:02.054Z,3
2019-03-09T02:19:02.251Z,3
2019-03-09T02:20:01.521Z,2
2019-03-09T02:21:01.736Z,2
2019-03-09T02:22:01.947Z,3
2019-03-09T02:23:02.217Z,2
2019-03-09T02:24:02.424Z,3
2019-03-09T02:25:01.580Z,3
2019-03-09T02:26:01.844Z,3
2019-03-09T02:27:02.053Z,2
2019-03-09T02:28:02.290Z,3
2019-03-09T02:29:01.489Z,4
2019-03-09T02:30:01.865Z,4
2019-03-09T02:31:02.019Z,3
2019-03-09T02:32:02.371Z,3
2019-03-09T02:33:01.583Z,4
2019-03-09T02:34:01.773Z,2
2019-03-09T02:35:01.997Z,2
2019-03-09T02:36:02.191Z,2
2019-03-09T02:37:02.920Z,2
2019-03-09T02:38:01.602Z,3
2019-03-09T02:39:01.786Z,3
2019-03-09T02:40:02.160Z,3
2019-03-09T02:41:02.351Z,3
2019-03-09T02:42:02.125Z,3
2019-03-09T02:43:02.404Z,3
2019-03-09T02:44:01.650Z,2
2019-03-09T02:45:01.835Z,2
2019-03-09T02:46:02.044Z,3
2019-03-09T02:47:02.298Z,2
2019-03-09T02:48:02.403Z,3
2019-03-09T02:49:01.653Z,2
2019-03-09T02:50:02.024Z,2
2019-03-09T02:51:02.325Z,3
2019-03-09T02:52:01.458Z,2
2019-03-09T02:53:01.732Z,2
2019-03-09T02:54:01.982Z,2
2019-03-09T02:55:02.214Z,3
2019-03-09T02:56:02.406Z,3
2019-03-09T02:57:01.604Z,2
2019-03-09T02:58:01.848Z,3
2019-03-09T02:59:02.058Z,2
2019-03-09T03:00:04.207Z,2
2019-03-09T03:01:02.052Z,2
2019-03-09T03:02:02.254Z,3
2019-03-09T03:03:01.492Z,3
2019-03-09T03:04:01.698Z,4
2019-03-09T03:05:02.042Z,2
2019-03-09T03:06:02.250Z,2
2019-03-09T03:07:01.690Z,3
2019-03-09T03:08:01.940Z,3
2019-03-09T03:09:02.136Z,3
2019-03-09T03:10:02.378Z,2
2019-03-09T03:11:01.596Z,3
2019-03-09T03:12:01.845Z,3
2019-03-09T03:13:02.082Z,3
2019-03-09T03:14:02.270Z,3
2019-03-09T03:15:01.434Z,2
2019-03-09T03:16:01.691Z,3
2019-03-09T03:17:01.844Z,2
2019-03-09T03:18:02.171Z,3
2019-03-09T03:19:02.396Z,3
2019-03-09T03:20:01.685Z,3
2019-03-09T03:21:01.909Z,2
2019-03-09T03:22:02.080Z,2
2019-03-09T03:23:02.412Z,3
2019-03-09T03:24:01.582Z,1
2019-03-09T03:25:01.821Z,2
2019-03-09T03:26:01.996Z,2
2019-03-09T03:27:02.237Z,2
2019-03-09T03:28:01.519Z,2
2019-03-09T03:29:01.784Z,2
2019-03-09T03:30:02.056Z,1
2019-03-09T03:31:02.201Z,2
2019-03-09T03:32:01.431Z,2
2019-03-09T03:33:01.644Z,3
2019-03-09T03:34:01.902Z,3
2019-03-09T03:35:02.115Z,3
2019-03-09T03:36:02.233Z,3
2019-03-09T03:37:01.451Z,2
2019-03-09T03:38:02.155Z,2
2019-03-09T03:39:02.181Z,2
2019-03-09T03:40:01.497Z,3
2019-03-09T03:41:01.738Z,1
2019-03-09T03:42:01.883Z,2
2019-03-09T03:43:02.097Z,2
2019-03-09T03:44:02.270Z,1
2019-03-09T03:45:01.496Z,2
2019-03-09T03:46:01.794Z,1
2019-03-09T03:47:01.957Z,3
2019-03-09T03:48:02.154Z,3
2019-03-09T03:49:03.885Z,1
2019-03-09T03:50:01.575Z,1
2019-03-09T03:51:01.828Z,3
2019-03-09T03:52:02.056Z,4
2019-03-09T03:53:02.322Z,2
2019-03-09T03:54:01.525Z,2
2019-03-09T03:55:01.865Z,2
2019-03-09T03:56:01.910Z,3
2019-03-09T03:57:02.167Z,2
2019-03-09T03:58:02.479Z,2
2019-03-09T03:59:01.615Z,1
2019-03-09T04:00:01.968Z,3
2019-03-09T04:01:02.195Z,1
2019-03-09T04:02:02.442Z,3
2019-03-09T04:03:01.661Z,2
2019-03-09T04:04:01.777Z,3
2019-03-09T04:05:02.095Z,3
2019-03-09T04:06:02.336Z,3
2019-03-09T04:07:01.596Z,1
2019-03-09T04:08:01.857Z,3
2019-03-09T04:09:01.841Z,2
2019-03-09T04:10:02.149Z,3
2019-03-09T04:11:02.396Z,2
2019-03-09T04:12:01.590Z,3
2019-03-09T04:13:01.879Z,3
2019-03-09T04:14:02.002Z,2
2019-03-09T04:15:02.362Z,2
2019-03-09T04:16:01.533Z,2
2019-03-09T04:17:01.732Z,1
2019-03-09T04:18:01.976Z,2
2019-03-09T04:19:02.200Z,2
2019-03-09T04:20:01.427Z,3
2019-03-09T04:21:02.120Z,3
2019-03-09T04:22:01.938Z,3
2019-03-09T04:23:02.155Z,3
2019-03-09T04:24:02.354Z,2
2019-03-09T04:25:01.619Z,3
2019-03-09T04:26:01.809Z,2
2019-03-09T04:27:02.042Z,1
2019-03-09T04:28:02.345Z,1
2019-03-09T04:29:01.495Z,2
2019-03-09T04:30:01.747Z,2
2019-03-09T04:31:01.987Z,1
2019-03-09T04:32:02.214Z,1
2019-03-09T04:33:01.506Z,1
2019-03-09T04:34:01.674Z,2
2019-03-09T04:35:01.998Z,2
2019-03-09T04:36:02.192Z,2
2019-03-09T04:37:02.306Z,2
2019-03-09T04:38:01.553Z,2
2019-03-09T04:39:01.769Z,2
2019-03-09T04:40:02.075Z,2
2019-03-09T04:41:02.202Z,2
2019-03-09T04:42:01.478Z,2
2019-03-09T04:43:01.738Z,2
2019-03-09T04:44:01.871Z,3
2019-03-09T04:45:02.201Z,1
2019-03-09T04:46:01.500Z,2
2019-03-09T04:47:01.702Z,3
2019-03-09T04:48:01.981Z,1
2019-03-09T04:49:02.209Z,1
2019-03-09T04:50:01.587Z,2
2019-03-09T04:51:01.684Z,3
2019-03-09T04:52:02.002Z,3
2019-03-09T04:53:02.148Z,2
2019-03-09T04:54:01.442Z,1
2019-03-09T04:55:01.816Z,1
2019-03-09T04:56:01.914Z,1
2019-03-09T04:57:02.157Z,3
2019-03-09T04:58:02.346Z,1
2019-03-09T04:59:01.545Z,1
2019-03-09T05:00:04.486Z,2
2019-03-09T05:01:02.336Z,2
2019-03-09T05:02:01.516Z,2
2019-03-09T05:03:01.807Z,2
2019-03-09T05:04:02.040Z,2
2019-03-09T05:05:02.357Z,1
2019-03-09T05:06:01.555Z,2
2019-03-09T05:07:01.807Z,2
2019-03-09T05:08:02.080Z,1
2019-03-09T05:09:02.240Z,2
2019-03-09T05:10:01.483Z,2
2019-03-09T05:11:01.697Z,2
2019-03-09T05:12:01.909Z,1
2019-03-09T05:13:02.115Z,1
2019-03-09T05:14:02.292Z,1
2019-03-09T05:15:01.604Z,1
2019-03-09T05:16:01.803Z,2
2019-03-09T05:17:01.995Z,2
2019-03-09T05:18:02.311Z,3
2019-03-09T05:19:01.435Z,2
2019-03-09T05:20:01.712Z,2
2019-03-09T05:21:01.919Z,2
2019-03-09T05:22:02.095Z,2
2019-03-09T05:23:02.331Z,1
2019-03-09T05:24:01.562Z,1
2019-03-09T05:25:01.860Z,1
2019-03-09T05:26:02.147Z,3
2019-03-09T05:27:02.287Z,2
2019-03-09T05:28:01.538Z,2
2019-03-09T05:29:01.797Z,3
2019-03-09T05:30:01.983Z,1
2019-03-09T05:31:02.283Z,2
2019-03-09T05:32:01.472Z,1
2019-03-09T05:33:01.743Z,2
2019-03-09T05:34:01.878Z,2
2019-03-09T05:35:02.176Z,2
2019-03-09T05:36:02.340Z,2
2019-03-09T05:37:01.496Z,4
2019-03-09T05:38:01.775Z,1
2019-03-09T05:39:02.021Z,2
2019-03-09T05:40:02.181Z,2
2019-03-09T05:41:02.346Z,3
2019-03-09T05:42:01.590Z,2
2019-03-09T05:43:01.959Z,1
2019-03-09T05:44:02.046Z,2
2019-03-09T05:45:02.331Z,2
2019-03-09T05:46:01.527Z,2
2019-03-09T05:47:01.731Z,2
2019-03-09T05:48:01.996Z,1
2019-03-09T05:49:02.140Z,1
2019-03-09T05:50:04.511Z,2
2019-03-09T05:51:01.633Z,2
2019-03-09T05:52:01.823Z,1
2019-03-09T05:53:02.101Z,2
2019-03-09T05:54:02.280Z,2
2019-03-09T05:55:01.577Z,2
2019-03-09T05:56:01.841Z,1
2019-03-09T05:57:02.001Z,1
2019-03-09T05:58:02.229Z,1
2019-03-09T05:59:01.478Z,2
2019-03-09T06:00:03.824Z,1
2019-03-09T06:01:01.769Z,2
2019-03-09T06:02:01.929Z,1
2019-03-09T06:03:02.128Z,1
2019-03-09T06:04:02.320Z,2
2019-03-09T06:05:01.587Z,1
2019-03-09T06:06:01.920Z,2
2019-03-09T06:07:02.057Z,1
2019-03-09T06:08:02.255Z,1
2019-03-09T06:09:01.558Z,2
2019-03-09T06:10:01.833Z,2
2019-03-09T06:11:02.130Z,3
2019-03-09T06:12:02.343Z,1
2019-03-09T06:13:01.614Z,2
2019-03-09T06:14:01.823Z,1
2019-03-09T06:15:02.100Z,2
2019-03-09T06:16:02.308Z,2
2019-03-09T06:17:01.507Z,3
2019-03-09T06:18:01.724Z,1
2019-03-09T06:19:01.936Z,1
2019-03-09T06:20:02.224Z,1
2019-03-09T06:21:02.366Z,4
2019-03-09T06:22:01.568Z,3
2019-03-09T06:23:01.770Z,2
2019-03-09T06:24:01.978Z,2
2019-03-09T06:25:02.451Z,2
2019-03-09T06:26:02.380Z,3
2019-03-09T06:27:01.607Z,2
2019-03-09T06:28:01.924Z,2
2019-03-09T06:29:02.023Z,2
2019-03-09T06:30:02.276Z,3
2019-03-09T06:31:01.498Z,3
2019-03-09T06:32:01.718Z,2
2019-03-09T06:33:01.949Z,3
2019-03-09T06:34:02.150Z,2
2019-03-09T06:35:02.475Z,2
2019-03-09T06:36:01.622Z,2
2019-03-09T06:37:01.833Z,2
2019-03-09T06:38:02.037Z,4
2019-03-09T06:39:02.286Z,3
2019-03-09T06:40:01.553Z,3
2019-03-09T06:41:03.130Z,3
2019-03-09T06:42:02.003Z,1
2019-03-09T06:43:02.208Z,3
2019-03-09T06:44:01.441Z,3
2019-03-09T06:45:01.638Z,4
2019-03-09T06:46:01.840Z,4
2019-03-09T06:47:02.041Z,2
2019-03-09T06:48:02.237Z,3
2019-03-09T06:49:01.531Z,2
2019-03-09T06:50:01.795Z,2
2019-03-09T06:51:02.067Z,1
2019-03-09T06:52:02.228Z,2
2019-03-09T06:53:02.970Z,3
2019-03-09T06:54:01.664Z,2
2019-03-09T06:55:01.923Z,1
2019-03-09T06:56:02.161Z,2
2019-03-09T06:57:02.346Z,2
2019-03-09T06:58:01.632Z,3
2019-03-09T06:59:01.767Z,1
2019-03-09T07:00:04.867Z,3
2019-03-09T07:01:01.779Z,3
2019-03-09T07:02:01.996Z,2
2019-03-09T07:03:02.118Z,3
2019-03-09T07:04:02.376Z,3
2019-03-09T07:05:01.607Z,2
2019-03-09T07:06:01.889Z,3
2019-03-09T07:07:02.142Z,2
2019-03-09T07:08:02.398Z,3
2019-03-09T07:09:01.542Z,3
2019-03-09T07:10:01.871Z,2
2019-03-09T07:11:02.016Z,1
2019-03-09T07:12:02.159Z,2
2019-03-09T07:13:01.447Z,2
2019-03-09T07:14:01.622Z,2
2019-03-09T07:15:02.018Z,2
2019-03-09T07:16:02.144Z,3
2019-03-09T07:17:02.257Z,4
2019-03-09T07:18:01.485Z,2
2019-03-09T07:19:01.701Z,3
2019-03-09T07:20:11.973Z,2
2019-03-09T07:21:01.802Z,3
2019-03-09T07:22:01.962Z,3
2019-03-09T07:23:02.244Z,3
2019-03-09T07:24:01.474Z,4
2019-03-09T07:25:01.807Z,3
2019-03-09T07:26:01.979Z,3
2019-03-09T07:27:02.178Z,3
2019-03-09T07:28:01.478Z,2
2019-03-09T07:29:01.690Z,3
2019-03-09T07:30:01.938Z,3
2019-03-09T07:31:02.251Z,3
2019-03-09T07:32:02.482Z,4
2019-03-09T07:33:01.631Z,3
2019-03-09T07:34:01.627Z,3
2019-03-09T07:35:02.024Z,2
2019-03-09T07:36:02.163Z,2
2019-03-09T07:37:02.481Z,3
2019-03-09T07:38:01.623Z,3
2019-03-09T07:39:01.775Z,2
2019-03-09T07:40:02.152Z,3
2019-03-09T07:41:02.333Z,2
2019-03-09T07:42:02.392Z,2
2019-03-09T07:43:01.669Z,3
2019-03-09T07:44:01.796Z,2
2019-03-09T07:45:02.064Z,3
2019-03-09T07:46:02.204Z,2
2019-03-09T07:47:02.395Z,3
2019-03-09T07:48:01.640Z,2
2019-03-09T07:49:01.875Z,3
2019-03-09T07:50:02.163Z,3
2019-03-09T07:51:02.430Z,3
2019-03-09T07:52:01.671Z,3
2019-03-09T07:53:01.934Z,2
2019-03-09T07:54:02.119Z,2
2019-03-09T07:55:02.358Z,2
2019-03-09T07:56:01.623Z,4
2019-03-09T07:57:01.862Z,2
2019-03-09T07:58:02.169Z,2
2019-03-09T07:59:02.308Z,3
2019-03-09T08:00:04.432Z,3
2019-03-09T08:01:02.230Z,3
2019-03-09T08:02:01.425Z,3
2019-03-09T08:03:06.186Z,3
2019-03-09T08:04:01.887Z,3
2019-03-09T08:05:02.127Z,3
2019-03-09T08:06:02.368Z,4
2019-03-09T08:07:01.512Z,4
2019-03-09T08:08:01.739Z,4
2019-03-09T08:09:02.076Z,2
2019-03-09T08:10:02.237Z,2
2019-03-09T08:11:01.561Z,3
2019-03-09T08:12:01.740Z,3
2019-03-09T08:13:01.973Z,3
2019-03-09T08:14:02.191Z,6
2019-03-09T08:15:01.556Z,2
2019-03-09T08:16:01.633Z,1
2019-03-09T08:17:01.488Z,2
2019-03-09T08:18:01.668Z,3
2019-03-09T08:19:01.889Z,3
2019-03-09T08:20:02.127Z,2
2019-03-09T08:21:02.324Z,3
2019-03-09T08:22:01.432Z,2
2019-03-09T08:23:01.679Z,3
2019-03-09T08:24:01.873Z,4
2019-03-09T08:25:02.087Z,3
2019-03-09T08:26:02.291Z,3
2019-03-09T08:27:01.597Z,3
2019-03-09T08:28:01.771Z,4
2019-03-09T08:29:02.094Z,3
2019-03-09T08:30:02.708Z,2
2019-03-09T08:31:02.484Z,4
2019-03-09T08:32:01.563Z,3
2019-03-09T08:33:01.740Z,3
2019-03-09T08:34:01.966Z,4
2019-03-09T08:35:02.228Z,2
2019-03-09T08:36:02.147Z,2
2019-03-09T08:37:02.232Z,3
2019-03-09T08:38:02.370Z,3
2019-03-09T08:39:01.559Z,3
2019-03-09T08:40:01.856Z,2
2019-03-09T08:41:02.118Z,2
2019-03-09T08:42:02.302Z,4
2019-03-09T08:43:02.404Z,3
2019-03-09T08:44:01.573Z,3
2019-03-09T08:45:01.911Z,6
2019-03-09T08:46:02.022Z,6
2019-03-09T08:47:02.152Z,4
2019-03-09T08:48:02.305Z,4
2019-03-09T08:49:01.444Z,5
2019-03-09T08:50:01.754Z,3
2019-03-09T08:51:01.968Z,4
2019-03-09T08:52:02.174Z,3
2019-03-09T08:53:01.377Z,5
2019-03-09T08:54:01.613Z,3
2019-03-09T08:55:01.904Z,3
2019-03-09T08:56:02.103Z,5
2019-03-09T08:57:02.277Z,4
2019-03-09T08:58:02.398Z,3
2019-03-09T08:59:01.670Z,4
2019-03-09T09:00:04.137Z,2
2019-03-09T09:01:01.936Z,3
2019-03-09T09:02:02.124Z,2
2019-03-09T09:03:02.072Z,4
2019-03-09T09:04:02.333Z,3
2019-03-09T09:05:01.533Z,3
2019-03-09T09:06:02.238Z,5
2019-03-09T09:07:01.400Z,3
2019-03-09T09:08:03.754Z,4
2019-03-09T09:09:02.258Z,3
2019-03-09T09:10:02.493Z,4
2019-03-09T09:11:01.651Z,4
2019-03-09T09:12:01.876Z,4
2019-03-09T09:13:02.110Z,4
2019-03-09T09:14:02.279Z,3
2019-03-09T09:15:02.090Z,3
2019-03-09T09:16:02.105Z,3
2019-03-09T09:17:02.300Z,3
2019-03-09T09:18:01.539Z,3
2019-03-09T09:19:01.717Z,4
2019-03-09T09:20:02.017Z,4
2019-03-09T09:21:02.273Z,4
2019-03-09T09:22:01.442Z,4
2019-03-09T09:23:01.627Z,3
2019-03-09T09:24:01.813Z,4
2019-03-09T09:25:02.205Z,4
2019-03-09T09:26:02.325Z,4
2019-03-09T09:27:01.512Z,4
2019-03-09T09:28:01.757Z,4
2019-03-09T09:29:01.705Z,3
2019-03-09T09:30:01.984Z,4
2019-03-09T09:31:02.175Z,3
2019-03-09T09:32:02.350Z,1
2019-03-09T09:33:01.510Z,3
2019-03-09T09:34:01.745Z,2
2019-03-09T09:35:02.024Z,3
2019-03-09T09:36:02.191Z,4
2019-03-09T09:37:01.422Z,4
2019-03-09T09:38:01.534Z,4
2019-03-09T09:39:01.739Z,2
2019-03-09T09:40:02.003Z,3
2019-03-09T09:41:02.268Z,3
2019-03-09T09:42:01.373Z,4
2019-03-09T09:43:01.572Z,5
2019-03-09T09:44:01.797Z,3
2019-03-09T09:45:02.072Z,3
2019-03-09T09:46:02.269Z,4
2019-03-09T09:47:01.546Z,5
2019-03-09T09:48:01.661Z,2
2019-03-09T09:49:01.873Z,4
2019-03-09T09:50:02.157Z,3
2019-03-09T09:51:02.310Z,6
2019-03-09T09:52:01.567Z,4
2019-03-09T09:53:01.646Z,4
2019-03-09T09:54:01.789Z,4
2019-03-09T09:55:02.092Z,5
2019-03-09T09:56:02.283Z,4
2019-03-09T09:57:01.512Z,6
2019-03-09T09:58:01.670Z,4
2019-03-09T09:59:01.882Z,5
2019-03-09T10:00:04.515Z,6
2019-03-09T10:01:01.387Z,7
2019-03-09T10:02:01.690Z,5
2019-03-09T10:03:02.217Z,6
2019-03-09T10:04:02.289Z,7
2019-03-09T10:05:01.810Z,4
2019-03-09T10:06:01.738Z,5
2019-03-09T10:07:01.902Z,5
2019-03-09T10:08:02.177Z,4
2019-03-09T10:09:01.470Z,5
2019-03-09T10:10:01.649Z,5
2019-03-09T10:11:01.586Z,4
2019-03-09T10:12:01.860Z,5
2019-03-09T10:13:02.036Z,5
2019-03-09T10:14:02.245Z,3
2019-03-09T10:15:01.634Z,4
2019-03-09T10:16:01.713Z,7
2019-03-09T10:17:01.963Z,4
2019-03-09T10:18:02.177Z,4
2019-03-09T10:19:01.399Z,5
2019-03-09T10:20:01.676Z,5
2019-03-09T10:21:01.829Z,4
2019-03-09T10:22:02.077Z,5
2019-03-09T10:23:04.538Z,4
2019-03-09T10:24:01.489Z,5
2019-03-09T10:25:01.814Z,3
2019-03-09T10:26:01.903Z,4
2019-03-09T10:27:02.079Z,3
2019-03-09T10:28:02.317Z,2
2019-03-09T10:29:01.534Z,4
2019-03-09T10:30:02.330Z,4
2019-03-09T10:31:02.108Z,3
2019-03-09T10:32:02.330Z,4
2019-03-09T10:33:01.536Z,5
2019-03-09T10:34:01.846Z,4
2019-03-09T10:35:02.016Z,2
2019-03-09T10:36:02.252Z,5
2019-03-09T10:37:01.509Z,3
2019-03-09T10:38:01.622Z,4
2019-03-09T10:39:01.902Z,4
2019-03-09T10:40:02.191Z,4
2019-03-09T10:41:02.342Z,4
2019-03-09T10:42:01.588Z,3
2019-03-09T10:43:01.826Z,2
2019-03-09T10:44:02.050Z,5
2019-03-09T10:45:02.295Z,4
2019-03-09T10:46:01.545Z,4
2019-03-09T10:47:01.753Z,4
2019-03-09T10:48:01.974Z,4
2019-03-09T10:49:02.141Z,4
2019-03-09T10:50:02.438Z,4
2019-03-09T10:51:01.652Z,3
2019-03-09T10:52:01.932Z,3
2019-03-09T10:53:02.229Z,4
2019-03-09T10:54:01.387Z,4
2019-03-09T10:55:01.640Z,4
2019-03-09T10:56:01.914Z,3
2019-03-09T10:57:02.075Z,3
2019-03-09T10:58:02.328Z,3
2019-03-09T10:59:01.562Z,4
2019-03-09T11:00:03.623Z,3
2019-03-09T11:01:02.315Z,5
2019-03-09T11:02:01.477Z,3
2019-03-09T11:03:01.778Z,3
2019-03-09T11:04:02.006Z,3
2019-03-09T11:05:02.263Z,5
2019-03-09T11:06:01.506Z,3
2019-03-09T11:07:01.814Z,3
2019-03-09T11:08:01.996Z,2
2019-03-09T11:09:02.247Z,2
2019-03-09T11:10:01.627Z,4
2019-03-09T11:11:01.702Z,1
2019-03-09T11:12:01.923Z,3
2019-03-09T11:13:01.742Z,2
2019-03-09T11:14:01.902Z,3
2019-03-09T11:15:02.184Z,3
2019-03-09T11:16:01.408Z,3
2019-03-09T11:17:01.608Z,3
2019-03-09T11:18:01.942Z,5
2019-03-09T11:19:02.150Z,5
2019-03-09T11:20:01.453Z,3
2019-03-09T11:21:01.620Z,3
2019-03-09T11:22:01.854Z,5
2019-03-09T11:23:01.991Z,3
2019-03-09T11:24:02.228Z,3
2019-03-09T11:25:03.775Z,5
2019-03-09T11:26:01.677Z,3
2019-03-09T11:27:01.936Z,3
2019-03-09T11:28:02.078Z,2
2019-03-09T11:29:02.330Z,2
2019-03-09T11:30:01.952Z,3
2019-03-09T11:31:02.237Z,4
2019-03-09T11:32:01.515Z,5
2019-03-09T11:33:01.746Z,4
2019-03-09T11:34:01.921Z,2
2019-03-09T11:35:01.742Z,3
2019-03-09T11:36:02.247Z,3
2019-03-09T11:37:01.495Z,5
2019-03-09T11:38:01.693Z,3
2019-03-09T11:39:01.882Z,3
2019-03-09T11:40:02.256Z,4
2019-03-09T11:41:02.433Z,3
2019-03-09T11:42:01.640Z,4
2019-03-09T11:43:01.788Z,3
2019-03-09T11:44:01.932Z,4
2019-03-09T11:45:02.163Z,4
2019-03-09T11:46:02.435Z,4
2019-03-09T11:47:01.603Z,4
2019-03-09T11:48:01.831Z,3
2019-03-09T11:49:01.761Z,3
2019-03-09T11:50:02.039Z,4
2019-03-09T11:51:02.345Z,5
2019-03-09T11:52:01.480Z,3
2019-03-09T11:53:01.648Z,3
2019-03-09T11:54:05.462Z,3
2019-03-09T11:55:02.280Z,2
2019-03-09T11:56:01.431Z,3
2019-03-09T11:57:01.652Z,3
2019-03-09T11:58:01.888Z,5
2019-03-09T11:59:02.067Z,5
2019-03-09T12:00:04.106Z,3
2019-03-09T12:01:01.931Z,3
2019-03-09T12:02:02.192Z,4
2019-03-09T12:03:02.343Z,4
2019-03-09T12:04:01.620Z,4
2019-03-09T12:05:01.856Z,2
2019-03-09T12:06:02.163Z,3
2019-03-09T12:07:02.310Z,3
2019-03-09T12:08:01.484Z,3
2019-03-09T12:09:01.790Z,4
2019-03-09T12:10:01.654Z,5
2019-03-09T12:11:01.859Z,4
2019-03-09T12:12:01.969Z,6
2019-03-09T12:13:02.093Z,4
2019-03-09T12:14:01.878Z,4
2019-03-09T12:15:02.179Z,5
2019-03-09T12:16:02.342Z,4
2019-03-09T12:17:01.660Z,5
2019-03-09T12:18:01.826Z,3
2019-03-09T12:19:02.036Z,4
2019-03-09T12:20:02.294Z,4
2019-03-09T12:21:02.127Z,6
2019-03-09T12:22:01.371Z,3
2019-03-09T12:23:01.801Z,5
2019-03-09T12:24:01.751Z,5
2019-03-09T12:25:01.974Z,6
2019-03-09T12:26:02.251Z,5
2019-03-09T12:27:02.382Z,3
2019-03-09T12:28:01.574Z,7
2019-03-09T12:29:01.829Z,5
2019-03-09T12:30:03.880Z,4
2019-03-09T12:31:02.298Z,6
2019-03-09T12:32:02.290Z,5
2019-03-09T12:33:01.493Z,3
2019-03-09T12:34:01.687Z,4
2019-03-09T12:35:01.910Z,5
2019-03-09T12:36:02.054Z,4
2019-03-09T12:37:01.488Z,7
2019-03-09T12:38:01.678Z,5
2019-03-09T12:39:01.907Z,5
2019-03-09T12:40:02.241Z,6
2019-03-09T12:41:02.461Z,6
2019-03-09T12:42:01.581Z,7
2019-03-09T12:43:01.862Z,4
2019-03-09T12:44:02.018Z,5
2019-03-09T12:45:02.377Z,6
2019-03-09T12:46:01.472Z,7
2019-03-09T12:47:01.634Z,6
2019-03-09T12:48:01.764Z,3
2019-03-09T12:49:01.982Z,7
2019-03-09T12:50:02.381Z,5
2019-03-09T12:51:01.582Z,7
2019-03-09T12:52:01.733Z,5
2019-03-09T12:53:01.951Z,6
2019-03-09T12:54:02.126Z,6
2019-03-09T12:55:02.438Z,6
2019-03-09T12:56:01.657Z,4
2019-03-09T12:57:01.978Z,5
2019-03-09T12:58:02.243Z,6
2019-03-09T12:59:02.345Z,5
2019-03-09T13:00:05.828Z,5
2019-03-09T13:01:01.601Z,6
2019-03-09T13:02:01.487Z,6
2019-03-09T13:03:01.748Z,6
2019-03-09T13:04:01.963Z,4
2019-03-09T13:05:02.235Z,5
2019-03-09T13:06:01.373Z,5
2019-03-09T13:07:01.469Z,8
2019-03-09T13:08:01.708Z,6
2019-03-09T13:09:01.895Z,6
2019-03-09T13:10:02.097Z,5
2019-03-09T13:11:02.310Z,7
2019-03-09T13:12:01.426Z,8
2019-03-09T13:13:01.668Z,6
2019-03-09T13:14:02.279Z,7
2019-03-09T13:15:01.563Z,6
2019-03-09T13:16:01.686Z,5
2019-03-09T13:17:01.914Z,7
2019-03-09T13:18:02.109Z,6
2019-03-09T13:19:02.376Z,6
2019-03-09T13:20:01.504Z,4
2019-03-09T13:21:01.626Z,5
2019-03-09T13:22:01.835Z,6
2019-03-09T13:23:01.939Z,6
2019-03-09T13:24:02.179Z,7
2019-03-09T13:25:02.381Z,5
2019-03-09T13:26:01.655Z,5
2019-03-09T13:27:01.762Z,7
2019-03-09T13:28:02.020Z,8
2019-03-09T13:29:02.170Z,6
2019-03-09T13:30:02.400Z,7
2019-03-09T13:31:01.546Z,7
2019-03-09T13:32:01.756Z,5
2019-03-09T13:33:01.973Z,7
2019-03-09T13:34:02.130Z,6
2019-03-09T13:35:02.352Z,8
2019-03-09T13:36:01.520Z,7
2019-03-09T13:37:01.672Z,6
2019-03-09T13:38:01.879Z,7
2019-03-09T13:39:02.212Z,6
2019-03-09T13:40:02.398Z,5
2019-03-09T13:41:01.479Z,4
2019-03-09T13:42:01.754Z,5
2019-03-09T13:43:01.926Z,4
2019-03-09T13:44:02.066Z,5
2019-03-09T13:45:02.361Z,4
2019-03-09T13:46:01.562Z,9
2019-03-09T13:47:04.111Z,5
2019-03-09T13:48:01.856Z,4
2019-03-09T13:49:01.982Z,8
2019-03-09T13:50:02.265Z,6
2019-03-09T13:51:01.453Z,6
2019-03-09T13:52:01.695Z,3
2019-03-09T13:53:01.937Z,6
2019-03-09T13:54:02.134Z,5
2019-03-09T13:55:02.376Z,3
2019-03-09T13:56:01.561Z,5
2019-03-09T13:57:01.793Z,4
2019-03-09T13:58:02.079Z,4
2019-03-09T13:59:02.216Z,5
2019-03-09T14:00:04.599Z,5
2019-03-09T14:01:01.570Z,5
2019-03-09T14:02:01.733Z,3
2019-03-09T14:03:03.224Z,6
2019-03-09T14:04:02.174Z,3
2019-03-09T14:05:02.418Z,6
2019-03-09T14:06:01.611Z,3
2019-03-09T14:07:01.785Z,3
2019-03-09T14:08:01.955Z,4
2019-03-09T14:09:02.229Z,3
2019-03-09T14:10:01.436Z,4
2019-03-09T14:11:01.563Z,3
2019-03-09T14:12:01.775Z,3
2019-03-09T14:13:02.005Z,4
2019-03-09T14:14:02.204Z,4
2019-03-09T14:15:02.528Z,4
2019-03-09T14:16:01.749Z,2
2019-03-09T14:17:01.936Z,2
2019-03-09T14:18:02.232Z,2
2019-03-09T14:19:02.415Z,4
2019-03-09T14:20:01.675Z,3
2019-03-09T14:21:01.954Z,4
2019-03-09T14:22:02.191Z,2
2019-03-09T14:23:01.437Z,2
2019-03-09T14:24:01.682Z,3
2019-03-09T14:25:02.019Z,2
2019-03-09T14:26:02.112Z,3
2019-03-09T14:27:02.127Z,4
2019-03-09T14:28:02.205Z,3
2019-03-09T14:29:01.503Z,5
2019-03-09T14:30:01.537Z,0
2019-03-09T14:31:01.797Z,3
2019-03-09T14:32:02.025Z,3
2019-03-09T14:33:02.270Z,2
2019-03-09T14:34:01.547Z,3
2019-03-09T14:35:01.835Z,1
2019-03-09T14:36:02.141Z,2
2019-03-09T14:37:02.374Z,3
2019-03-09T14:38:01.598Z,2
2019-03-09T14:39:01.755Z,2
2019-03-09T14:40:02.057Z,2
2019-03-09T14:41:02.149Z,3
2019-03-09T14:42:01.389Z,1
2019-03-09T14:43:01.627Z,3
2019-03-09T14:44:01.733Z,2
2019-03-09T14:45:01.891Z,1
2019-03-09T14:46:02.112Z,2
2019-03-09T14:47:02.309Z,3